Dardenne Prairie, Missouri
Current Conditions -  °F | °C
As of 7:54 AM on Monday 26 Jan 2015 (Local Time) from KSUS Reporting Station
Broken Clouds Broken Clouds  
Wind Chill: 23°   Ceiling: 2500
Heat Index: 28°   Visibility: 10mi
Dew Point: 23°   Wind: 5mph
Humidity: 81%   Direction: 250°WSW
Pressure: 30.05"   Gusts: NA
Location:  38.757°N, 90.7247°W
Report Text: KSUS 261354Z 25004KT 10SM BKN025 M02/M05 A3005 RMK AO2 SLP182 T10221050
Loading
Personal Weather Stations






























Interactive Weather Map New forecast layout! Learn more

10-Day Weather Forecast

Advertisements
Track Severe Weather on mobile